East Springfield, Pennsylvania
Current Conditions -  °F | °C
As of 10:51 AM on Thursday 29 Jan 2015 (Local Time) from KERI Reporting Station
Overcast Overcast  
Wind Chill: -6°   Ceiling: 5000
Heat Index:   Visibility: 10mi
Dew Point: -13°   Wind: 23mph
Humidity: 35%   Direction: 160°SSE
Pressure: 29.79"   Gusts: 35mph
Location:  41.96°N, 80.41°W
Report Text: KERI 291551Z 16020G30KT 10SM OVC050 01/M13 A2979 RMK AO2 PK WND 15034/1525 FZRAE09 SLP096 P0000 T00111128
Loading
Personal Weather Stations






























Interactive Weather Map New forecast layout! Learn more

10-Day Weather Forecast

Advertisements
Track Severe Weather on mobile